Time;durP1;ratioP1;P1;durP2;ratioP2;P2;SDS_P1;SDS_P2;PMS_P1;PMS_P2;Temp;Humidity;BMP_temperature;BMP_pressure;BME280_temperature;BME280_humidity;BME280_pressure;Samples;Min_cycle;Max_cycle;Signal;HPM_P1;HPM_P2
2023/05/21 00:00:30;;;;;;;44.20;27.00;;;;;;;;;;110342;1279;22131;-76
2023/05/21 00:03:17;;;;;;;42.40;27.30;;;;;;;;;;110326;1279;22129;-76
2023/05/21 00:05:45;;;;;;;45.20;28.40;;;;;;;;;;110273;1255;23316;-76
2023/05/21 00:08:13;;;;;;;44.30;29.10;;;;;;;;;;110298;1278;22119;-76
2023/05/21 00:10:40;;;;;;;45.80;29.10;;;;;;;;;;110454;1278;22118;-76
2023/05/21 00:13:09;;;;;;;47.80;28.80;;;;;;;;;;110326;1278;23008;-76
2023/05/21 00:15:36;;;;;;;48.90;29.70;;;;;;;;;;110323;1278;22189;-76
2023/05/21 00:18:04;;;;;;;45.40;27.70;;;;;;;;;;110338;1262;22173;-76
2023/05/21 00:20:32;;;;;;;40.60;25.70;;;;;;;;;;110150;1279;22106;-76
2023/05/21 00:23:03;;;;;;;40.90;25.20;;;;;;;;;;110148;1279;22096;-76
2023/05/21 00:25:30;;;;;;;42.00;26.30;;;;;;;;;;110161;1279;22104;-77
2023/05/21 00:27:58;;;;;;;42.50;27.10;;;;;;;;;;110111;1263;22152;-76
2023/05/21 00:30:26;;;;;;;44.80;28.30;;;;;;;;;;110378;1278;22193;-76
2023/05/21 00:32:57;;;;;;;46.80;30.00;;;;;;;;;;110379;1278;22980;-76
2023/05/21 00:35:24;;;;;;;49.30;30.70;;;;;;;;;;110175;1278;22115;-76
2023/05/21 00:37:52;;;;;;;56.50;32.50;;;;;;;;;;110532;1258;22115;-76
2023/05/21 00:40:20;;;;;;;54.50;30.60;;;;;;;;;;110166;1279;22419;-76
2023/05/21 00:42:50;;;;;;;52.70;30.30;;;;;;;;;;110338;1276;23205;-76
2023/05/21 00:45:19;;;;;;;57.90;33.60;;;;;;;;;;110342;1277;22140;-76
2023/05/21 00:47:48;;;;;;;54.70;32.80;;;;;;;;;;110465;1260;22183;-76
2023/05/21 00:50:16;;;;;;;57.50;34.80;;;;;;;;;;110536;1276;22543;-76
2023/05/21 00:52:47;;;;;;;60.30;36.20;;;;;;;;;;110232;1276;22007;-77
2023/05/21 00:55:19;;;;;;;55.10;35.50;;;;;;;;;;110260;1276;22105;-76
2023/05/21 00:57:49;;;;;;;62.10;34.70;;;;;;;;;;110502;1257;22122;-76
2023/05/21 01:00:18;;;;;;;54.10;34.30;;;;;;;;;;110512;1277;22187;-76
2023/05/21 01:02:47;;;;;;;52.70;32.80;;;;;;;;;;110454;1277;22094;-77
2023/05/21 01:05:16;;;;;;;48.90;28.70;;;;;;;;;;110440;1277;22850;-76
2023/05/21 01:07:45;;;;;;;47.20;27.30;;;;;;;;;;110435;1257;22124;-76
2023/05/21 01:10:14;;;;;;;42.50;26.30;;;;;;;;;;110520;1276;22102;-76
2023/05/21 01:12:43;;;;;;;41.80;25.90;;;;;;;;;;110491;1276;22200;-79
2023/05/21 01:15:13;;;;;;;39.60;24.90;;;;;;;;;;110412;1276;22137;-76
2023/05/21 01:17:44;;;;;;;41.30;26.00;;;;;;;;;;110393;1259;22106;-77
2023/05/21 01:20:16;;;;;;;35.60;22.70;;;;;;;;;;110186;1277;22169;-76
2023/05/21 01:22:55;;;;;;;41.80;25.50;;;;;;;;;;110335;1277;22097;-77
2023/05/21 01:25:25;;;;;;;37.40;24.30;;;;;;;;;;110429;1277;22104;-76
2023/05/21 01:27:54;;;;;;;43.30;27.40;;;;;;;;;;110419;1255;22164;-76
2023/05/21 01:30:24;;;;;;;42.40;26.40;;;;;;;;;;110439;1272;22142;-76
2023/05/21 01:32:56;;;;;;;41.50;27.00;;;;;;;;;;110421;1276;22869;-76
2023/05/21 01:35:28;;;;;;;44.60;28.30;;;;;;;;;;110365;1276;22152;-76
2023/05/21 01:38:21;;;;;;;42.40;27.40;;;;;;;;;;110471;1254;22116;-76
2023/05/21 01:41:03;;;;;;;41.40;25.70;;;;;;;;;;110352;1277;22598;-76
2023/05/21 01:50:31;;;;;;;41.00;26.50;;;;;;;;;;103749;1293;545033;-84
2023/05/21 01:53:18;;;;;;;47.50;29.40;;;;;;;;;;106313;1287;25527;-80
2023/05/21 01:55:50;;;;;;;46.10;30.10;;;;;;;;;;106308;1287;24206;-82
2023/05/21 01:58:37;;;;;;;44.00;27.10;;;;;;;;;;106144;1287;25301;-80
2023/05/21 02:01:14;;;;;;;48.70;29.90;;;;;;;;;;106313;1269;25405;-80
2023/05/21 02:03:41;;;;;;;42.80;27.30;;;;;;;;;;104221;1285;2922648;-83
2023/05/21 02:06:11;;;;;;;41.50;25.10;;;;;;;;;;106347;1285;24220;-81
2023/05/21 02:09:03;;;;;;;40.10;24.30;;;;;;;;;;106436;1285;22559;-80
2023/05/21 02:11:30;;;;;;;42.30;27.80;;;;;;;;;;106392;1266;25339;-77
2023/05/21 02:14:00;;;;;;;40.70;27.50;;;;;;;;;;106345;1285;25191;-83
2023/05/21 02:16:50;;;;;;;;;;;;;;;;;;;;;
2023/05/21 02:19:43;;;;;;;44.60;28.20;;;;;;;;;;106397;1285;25226;-77
2023/05/21 02:22:10;;;;;;;47.20;29.00;;;;;;;;;;106421;1279;25278;-77
2023/05/21 02:24:44;;;;;;;47.10;29.40;;;;;;;;;;106808;1278;22523;-84
2023/05/21 02:27:17;;;;;;;42.90;27.10;;;;;;;;;;106822;1275;25330;-79
2023/05/21 02:29:47;;;;;;;44.40;28.10;;;;;;;;;;106749;1278;22686;-80
2023/05/21 02:32:16;;;;;;;48.10;29.70;;;;;;;;;;106779;1259;24835;-80
2023/05/21 02:34:46;;;;;;;47.30;30.40;;;;;;;;;;106838;1278;22547;-78
2023/05/21 02:37:22;;;;;;;46.50;29.40;;;;;;;;;;106803;1278;22735;-83
2023/05/21 02:40:08;;;;;;;47.70;28.80;;;;;;;;;;106774;1278;22533;-81
2023/05/21 02:42:48;;;;;;;46.00;29.10;;;;;;;;;;106785;1278;25312;-81
2023/05/21 02:45:43;;;;;;;45.70;28.00;;;;;;;;;;106725;1279;23599;-80
2023/05/21 02:48:13;;;;;;;46.70;29.00;;;;;;;;;;106790;1279;24195;-78
2023/05/21 02:51:04;;;;;;;43.80;27.40;;;;;;;;;;106736;1257;25363;-81
2023/05/21 02:53:33;;;;;;;46.10;29.60;;;;;;;;;;106794;1279;22526;-82
2023/05/21 02:56:23;;;;;;;;;;;;;;;;;;;;;
2023/05/21 02:58:53;;;;;;;45.80;26.50;;;;;;;;;;106727;1279;22527;-78
2023/05/21 03:01:20;;;;;;;48.00;29.40;;;;;;;;;;106748;1263;24219;-78
2023/05/21 03:03:50;;;;;;;46.50;27.30;;;;;;;;;;106789;1278;22545;-83
2023/05/21 03:06:37;;;;;;;42.30;27.30;;;;;;;;;;106786;1279;22551;-83
2023/05/21 03:09:15;;;;;;;41.80;27.90;;;;;;;;;;106610;1280;22569;-80
2023/05/21 03:11:45;;;;;;;44.20;27.70;;;;;;;;;;106755;1262;22530;-83
2023/05/21 03:14:15;;;;;;;49.40;29.40;;;;;;;;;;106804;1279;25360;-81
2023/05/21 03:17:45;;;;;;;44.90;27.40;;;;;;;;;;106795;1279;24375;-80
2023/05/21 03:20:15;;;;;;;42.90;26.20;;;;;;;;;;106747;1279;22551;-81
2023/05/21 03:23:23;;;;;;;39.70;25.50;;;;;;;;;;106743;1261;24213;-77
2023/05/21 03:26:37;;;;;;;40.90;24.30;;;;;;;;;;106753;1279;25352;-80
2023/05/21 03:29:03;;;;;;;42.80;26.10;;;;;;;;;;106802;1279;22541;-79
2023/05/21 03:31:51;;;;;;;40.20;25.90;;;;;;;;;;106784;1257;25422;-80
2023/05/21 03:34:18;;;;;;;40.90;26.30;;;;;;;;;;106802;1279;22473;-82
2023/05/21 03:37:06;;;;;;;44.10;27.60;;;;;;;;;;106975;1276;26498;-79
2023/05/21 03:39:56;;;;;;;41.70;25.60;;;;;;;;;;106849;1276;24248;-81
2023/05/21 03:42:56;;;;;;;44.00;25.20;;;;;;;;;;106958;1258;23873;-79
2023/05/21 03:45:26;;;;;;;43.10;26.50;;;;;;;;;;106837;1276;22983;-80
2023/05/21 03:48:14;;;;;;;43.40;25.40;;;;;;;;;;106864;1276;22519;-81
2023/05/21 03:50:53;;;;;;;40.80;25.40;;;;;;;;;;106869;1276;22686;-82
2023/05/21 03:53:20;;;;;;;39.70;26.00;;;;;;;;;;106967;1276;26023;-78
2023/05/21 03:55:53;;;;;;;38.40;25.90;;;;;;;;;;106883;1276;24212;-83
2023/05/21 03:58:21;;;;;;;41.40;25.90;;;;;;;;;;107007;1276;23904;-79
2023/05/21 04:00:49;;;;;;;43.10;28.10;;;;;;;;;;106878;1276;22480;-82
2023/05/21 04:03:35;;;;;;;40.30;26.80;;;;;;;;;;106854;1267;23067;-79
2023/05/21 04:06:16;;;;;;;40.90;26.20;;;;;;;;;;106960;1276;22535;-82
2023/05/21 04:09:15;;;;;;;39.70;24.70;;;;;;;;;;106999;1276;25527;-76
2023/05/21 04:12:00;;;;;;;35.70;23.60;;;;;;;;;;106973;1276;25321;-76
2023/05/21 04:14:33;;;;;;;33.00;22.60;;;;;;;;;;106962;1276;25464;-81
2023/05/21 04:17:11;;;;;;;37.30;23.60;;;;;;;;;;106863;1276;22642;-77
2023/05/21 04:20:11;;;;;;;37.00;22.90;;;;;;;;;;106971;1276;25265;-78
2023/05/21 04:22:41;;;;;;;36.60;24.70;;;;;;;;;;106829;1256;24363;-80
2023/05/21 04:25:29;;;;;;;36.00;23.90;;;;;;;;;;106820;1277;24200;-81
2023/05/21 04:27:59;;;;;;;35.20;23.40;;;;;;;;;;106826;1277;22556;-83
2023/05/21 04:30:41;;;;;;;34.70;23.00;;;;;;;;;;106825;1277;22538;-81
2023/05/21 04:33:29;;;;;;;38.70;26.20;;;;;;;;;;106902;1277;25333;-79
2023/05/21 04:35:59;;;;;;;36.70;25.80;;;;;;;;;;106851;1276;24198;-80
2023/05/21 04:38:45;;;;;;;41.60;28.60;;;;;;;;;;106813;1277;22523;-80
2023/05/21 04:41:13;;;;;;;42.20;29.20;;;;;;;;;;106885;1276;25566;-80
2023/05/21 04:44:00;;;;;;;45.00;29.70;;;;;;;;;;106802;1268;22725;-77
2023/05/21 04:46:29;;;;;;;42.90;27.80;;;;;;;;;;106749;1277;25284;-81
2023/05/21 04:48:56;;;;;;;40.20;27.10;;;;;;;;;;106836;1277;24181;-78
2023/05/21 04:51:33;;;;;;;36.90;26.70;;;;;;;;;;106827;1277;22673;-80
2023/05/21 04:54:09;;;;;;;40.60;26.60;;;;;;;;;;106834;1261;22501;-80
2023/05/21 04:56:56;;;;;;;39.40;26.60;;;;;;;;;;106828;1277;25334;-80
2023/05/21 04:59:23;;;;;;;41.80;26.80;;;;;;;;;;106859;1277;23006;-81
2023/05/21 05:01:56;;;;;;;38.50;26.50;;;;;;;;;;106818;1277;24197;-80
2023/05/21 05:04:26;;;;;;;36.50;25.70;;;;;;;;;;106797;1269;22527;-81
2023/05/21 05:06:53;;;;;;;35.10;24.20;;;;;;;;;;106830;1277;24222;-80
2023/05/21 05:09:30;;;;;;;33.00;23.20;;;;;;;;;;106838;1277;25357;-78
2023/05/21 05:12:28;;;;;;;33.10;22.30;;;;;;;;;;106887;1277;24194;-78
2023/05/21 05:15:15;;;;;;;33.20;23.00;;;;;;;;;;106852;1260;24208;-81
2023/05/21 05:17:43;;;;;;;30.90;21.90;;;;;;;;;;106847;1255;22531;-81
2023/05/21 05:20:10;;;;;;;28.50;21.70;;;;;;;;;;106870;1277;22952;-78
2023/05/21 05:22:40;;;;;;;29.80;22.20;;;;;;;;;;106912;1277;24244;-82
2023/05/21 05:25:27;;;;;;;30.70;22.00;;;;;;;;;;106855;1276;24354;-84
2023/05/21 05:27:57;;;;;;;31.00;22.00;;;;;;;;;;106875;1277;24470;-84
2023/05/21 05:30:25;;;;;;;32.10;23.30;;;;;;;;;;106830;1277;22553;-77
2023/05/21 05:33:21;;;;;;;29.30;21.10;;;;;;;;;;106814;1277;25403;-79
2023/05/21 05:36:07;;;;;;;30.50;21.50;;;;;;;;;;106828;1259;22650;-83
2023/05/21 05:38:47;;;;;;;29.30;21.50;;;;;;;;;;106843;1277;24194;-82
2023/05/21 05:41:17;;;;;;;26.20;19.90;;;;;;;;;;106808;1277;25262;-79
2023/05/21 05:44:26;;;;;;;26.00;19.20;;;;;;;;;;106836;1277;22524;-79
2023/05/21 05:46:54;;;;;;;25.70;19.60;;;;;;;;;;106806;1259;24186;-78
2023/05/21 05:52:51;;;;;;;28.00;19.80;;;;;;;;;;106921;1277;22565;-85
2023/05/21 05:55:23;;;;;;;26.30;18.70;;;;;;;;;;106794;1270;25312;-79
2023/05/21 05:57:53;;;;;;;25.80;18.30;;;;;;;;;;106781;1277;22534;-79
2023/05/21 06:00:22;;;;;;;22.70;18.80;;;;;;;;;;106754;1277;25570;-80
2023/05/21 06:03:10;;;;;;;23.30;18.00;;;;;;;;;;106867;1277;22523;-82
2023/05/21 06:05:50;;;;;;;22.80;17.40;;;;;;;;;;106745;1259;25353;-80
2023/05/21 06:08:20;;;;;;;23.20;18.10;;;;;;;;;;106838;1277;22986;-83
2023/05/21 06:11:17;;;;;;;;;;;;;;;;;;;;;
2023/05/21 06:14:15;;;;;;;23.80;17.10;;;;;;;;;;106689;1277;24180;-82
2023/05/21 06:16:44;;;;;;;26.70;18.00;;;;;;;;;;106680;1277;22525;-81
2023/05/21 06:19:11;;;;;;;22.20;17.00;;;;;;;;;;106835;1277;22527;-81
2023/05/21 06:21:38;;;;;;;20.00;16.30;;;;;;;;;;106831;1277;22541;-83
2023/05/21 06:24:08;;;;;;;21.30;17.50;;;;;;;;;;106829;1277;22477;-85
2023/05/21 06:26:35;;;;;;;21.70;17.60;;;;;;;;;;106815;1259;25249;-83
2023/05/21 06:29:02;;;;;;;24.70;17.20;;;;;;;;;;106805;1277;22530;-78
2023/05/21 06:31:31;;;;;;;20.90;16.00;;;;;;;;;;106963;1277;22595;-83
2023/05/21 06:34:18;;;;;;;21.90;17.00;;;;;;;;;;106833;1277;22990;-81
2023/05/21 06:36:49;;;;;;;20.90;16.10;;;;;;;;;;106814;1259;22531;-85
2023/05/21 06:39:30;;;;;;;;;;;;;;;;;;;;;
2023/05/21 06:41:56;;;;;;;21.20;15.80;;;;;;;;;;106821;1277;25479;-82
2023/05/21 06:44:43;;;;;;;19.10;15.40;;;;;;;;;;106612;1277;25265;-77
2023/05/21 06:47:15;;;;;;;19.40;15.00;;;;;;;;;;106795;1263;23874;-82
2023/05/21 06:49:45;;;;;;;20.80;14.90;;;;;;;;;;106847;1275;25360;-79
2023/05/21 06:52:23;;;;;;;;;;;;;;;;;;;;;
2023/05/21 06:54:51;;;;;;;18.70;13.80;;;;;;;;;;106803;1277;25338;-80
2023/05/21 06:57:38;;;;;;;18.70;13.70;;;;;;;;;;106563;1268;22551;-82
2023/05/21 07:00:07;;;;;;;18.50;13.10;;;;;;;;;;106828;1277;22530;-81
2023/05/21 07:02:35;;;;;;;18.50;14.00;;;;;;;;;;106863;1277;22527;-86
2023/05/21 07:05:02;;;;;;;19.40;13.70;;;;;;;;;;106824;1277;22512;-84
2023/05/21 07:07:29;;;;;;;18.40;13.40;;;;;;;;;;106830;1277;24230;-82
2023/05/21 07:09:56;;;;;;;19.10;13.90;;;;;;;;;;106816;1277;24286;-83
2023/05/21 07:12:22;;;;;;;17.60;13.30;;;;;;;;;;106841;1277;22524;-81
2023/05/21 07:14:50;;;;;;;18.90;14.00;;;;;;;;;;106807;1277;22555;-80
2023/05/21 07:17:17;;;;;;;20.40;14.40;;;;;;;;;;106768;1260;22531;-85
2023/05/21 07:19:44;;;;;;;19.30;14.10;;;;;;;;;;106829;1277;25479;-84
2023/05/21 07:22:11;;;;;;;18.70;13.00;;;;;;;;;;106821;1277;25513;-83
2023/05/21 07:24:42;;;;;;;17.50;14.00;;;;;;;;;;106814;1277;24098;-78
2023/05/21 07:27:08;;;;;;;16.80;13.20;;;;;;;;;;106806;1264;22645;-84
2023/05/21 07:29:35;;;;;;;20.00;14.30;;;;;;;;;;106802;1277;22662;-82
2023/05/21 07:32:05;;;;;;;18.40;13.00;;;;;;;;;;106842;1278;24236;-83
2023/05/21 07:34:31;;;;;;;17.00;12.90;;;;;;;;;;106817;1277;22536;-77
2023/05/21 07:36:59;;;;;;;18.40;13.60;;;;;;;;;;106811;1264;23926;-84
2023/05/21 07:39:27;;;;;;;17.60;14.70;;;;;;;;;;106866;1277;24200;-82
2023/05/21 07:41:55;;;;;;;18.10;14.40;;;;;;;;;;106714;1277;22531;-77
2023/05/21 07:44:23;;;;;;;19.70;14.20;;;;;;;;;;106625;1277;23935;-78
2023/05/21 07:46:50;;;;;;;19.20;15.20;;;;;;;;;;106818;1277;22676;-82
2023/05/21 07:49:17;;;;;;;16.70;13.30;;;;;;;;;;106827;1268;25427;-84
2023/05/21 07:51:45;;;;;;;17.20;13.20;;;;;;;;;;106824;1277;22526;-81
2023/05/21 07:54:12;;;;;;;18.60;14.50;;;;;;;;;;106822;1277;21693;-85
2023/05/21 07:56:39;;;;;;;17.80;13.50;;;;;;;;;;106810;1277;24273;-80
2023/05/21 07:59:07;;;;;;;18.30;14.40;;;;;;;;;;106849;1277;22526;-82
2023/05/21 08:01:56;;;;;;;18.20;13.90;;;;;;;;;;106794;1277;25583;-78
2023/05/21 08:04:22;;;;;;;17.80;14.30;;;;;;;;;;106831;1277;22526;-85
2023/05/21 08:06:50;;;;;;;19.10;14.30;;;;;;;;;;106871;1276;22517;-84
2023/05/21 08:09:18;;;;;;;18.80;14.30;;;;;;;;;;106821;1267;25350;-81
2023/05/21 08:11:55;;;;;;;16.90;13.80;;;;;;;;;;106839;1273;23735;-82
2023/05/21 08:14:32;;;;;;;18.50;14.30;;;;;;;;;;106731;1270;24190;-80
2023/05/21 08:17:00;;;;;;;18.00;14.30;;;;;;;;;;106798;1276;25380;-83
2023/05/21 08:19:27;;;;;;;18.80;14.20;;;;;;;;;;106862;1260;25250;-82
2023/05/21 08:21:54;;;;;;;19.50;13.90;;;;;;;;;;106898;1276;25308;-79
2023/05/21 08:24:22;;;;;;;18.70;13.10;;;;;;;;;;106897;1276;26484;-79
2023/05/21 08:26:50;;;;;;;17.40;13.60;;;;;;;;;;106853;1276;22531;-82
2023/05/21 08:29:17;;;;;;;18.10;13.50;;;;;;;;;;106855;1259;22648;-82
2023/05/21 08:31:47;;;;;;;18.00;13.70;;;;;;;;;;106868;1276;24250;-78
2023/05/21 08:34:15;;;;;;;18.30;14.20;;;;;;;;;;106794;1276;26493;-82
2023/05/21 08:36:48;;;;;;;16.40;12.50;;;;;;;;;;106827;1276;25373;-78
2023/05/21 08:39:34;;;;;;;19.10;15.40;;;;;;;;;;106826;1267;22535;-82
2023/05/21 08:42:08;;;;;;;19.70;13.50;;;;;;;;;;106841;1276;25290;-84
2023/05/21 08:44:36;;;;;;;18.00;13.00;;;;;;;;;;106746;1276;24249;-81
2023/05/21 08:47:06;;;;;;;17.40;13.20;;;;;;;;;;106809;1272;22530;-76
2023/05/21 08:49:34;;;;;;;16.60;12.80;;;;;;;;;;106825;1267;22660;-77
2023/05/21 08:52:01;;;;;;;16.30;12.40;;;;;;;;;;106832;1276;25932;-84
2023/05/21 08:54:29;;;;;;;17.40;13.40;;;;;;;;;;106886;1272;22531;-77
2023/05/21 08:56:57;;;;;;;18.10;12.30;;;;;;;;;;106719;1276;22540;-77
2023/05/21 08:59:47;;;;;;;16.80;12.50;;;;;;;;;;106709;1267;22527;-79
2023/05/21 09:02:23;;;;;;;16.80;12.10;;;;;;;;;;106748;1273;25376;-77
2023/05/21 09:04:57;;;;;;;19.60;12.40;;;;;;;;;;106797;1276;26569;-78
2023/05/21 09:07:29;;;;;;;16.20;12.20;;;;;;;;;;106847;1276;22537;-79
2023/05/21 09:10:17;;;;;;;18.90;13.00;;;;;;;;;;106815;1262;22499;-79
2023/05/21 09:12:47;;;;;;;15.40;11.40;;;;;;;;;;106733;1274;23921;-77
2023/05/21 09:15:17;;;;;;;16.20;11.50;;;;;;;;;;106852;1273;22540;-83
2023/05/21 09:17:53;;;;;;;16.60;11.60;;;;;;;;;;106870;1276;22529;-79
2023/05/21 09:20:49;;;;;;;16.90;11.80;;;;;;;;;;106663;1276;24883;-78
2023/05/21 09:23:16;;;;;;;16.50;13.10;;;;;;;;;;106868;1270;24765;-78
2023/05/21 09:25:51;;;;;;;13.90;12.20;;;;;;;;;;106858;1270;22536;-79
2023/05/21 09:35:37;;;;;;;17.00;11.70;;;;;;;;;;103628;1305;545468;-79
2023/05/21 09:38:07;;;;;;;15.90;12.00;;;;;;;;;;106022;1286;21841;-78
2023/05/21 09:40:34;;;;;;;16.70;11.30;;;;;;;;;;106023;1281;22652;-79
2023/05/21 09:43:01;;;;;;;18.50;13.40;;;;;;;;;;105945;1288;22589;-78
2023/05/21 09:45:28;;;;;;;18.40;12.20;;;;;;;;;;105952;1271;24200;-80
2023/05/21 09:47:56;;;;;;;17.00;12.50;;;;;;;;;;106130;1289;25335;-81
2023/05/21 09:50:25;;;;;;;17.60;12.70;;;;;;;;;;104194;1286;2799024;-83
2023/05/21 09:52:54;;;;;;;25.80;16.30;;;;;;;;;;106373;1283;22546;-82
2023/05/21 09:55:21;;;;;;;18.30;12.00;;;;;;;;;;106418;1266;22557;-79
2023/05/21 09:57:48;;;;;;;12.90;10.30;;;;;;;;;;106347;1283;22541;-80
2023/05/21 10:00:23;;;;;;;23.70;13.60;;;;;;;;;;106392;1283;23918;-78
2023/05/21 10:02:54;;;;;;;19.20;12.80;;;;;;;;;;106407;1283;25362;-83
2023/05/21 10:05:26;;;;;;;17.20;11.40;;;;;;;;;;106424;1264;22607;-84
2023/05/21 10:07:55;;;;;;;22.60;13.50;;;;;;;;;;106384;1283;22612;-77
2023/05/21 10:10:22;;;;;;;17.70;10.90;;;;;;;;;;106365;1283;25409;-78
2023/05/21 10:12:53;;;;;;;33.00;17.40;;;;;;;;;;106403;1283;22547;-78
2023/05/21 10:15:22;;;;;;;19.60;11.90;;;;;;;;;;106416;1260;24246;-83
2023/05/21 10:17:49;;;;;;;17.10;12.00;;;;;;;;;;106428;1263;25349;-83
2023/05/21 10:20:16;;;;;;;18.00;11.00;;;;;;;;;;106436;1283;22660;-78
2023/05/21 10:22:43;;;;;;;16.90;11.60;;;;;;;;;;106409;1283;22553;-79
2023/05/21 10:25:11;;;;;;;15.10;10.90;;;;;;;;;;106395;1283;25233;-78
2023/05/21 10:27:38;;;;;;;14.20;10.20;;;;;;;;;;106407;1266;22510;-82
2023/05/21 10:30:05;;;;;;;15.10;9.50;;;;;;;;;;106292;1283;25409;-82
2023/05/21 10:32:32;;;;;;;15.10;10.40;;;;;;;;;;106312;1283;22530;-87
2023/05/21 10:35:01;;;;;;;16.40;9.80;;;;;;;;;;106434;1283;22553;-84
2023/05/21 10:37:28;;;;;;;13.30;10.00;;;;;;;;;;106409;1283;22782;-86
2023/05/21 10:39:55;;;;;;;14.30;9.40;;;;;;;;;;106360;1283;22542;-85
2023/05/21 10:42:22;;;;;;;16.70;9.60;;;;;;;;;;106406;1282;22544;-85
2023/05/21 10:45:07;;;;;;;15.60;9.10;;;;;;;;;;106522;1282;25420;-82
2023/05/21 10:47:37;;;;;;;16.40;9.00;;;;;;;;;;106482;1264;25482;-81
2023/05/21 10:50:14;;;;;;;13.40;9.40;;;;;;;;;;106482;1282;22533;-85
2023/05/21 10:52:56;;;;;;;13.00;9.50;;;;;;;;;;106804;1279;25312;-82
2023/05/21 10:55:50;;;;;;;11.90;7.70;;;;;;;;;;106822;1279;24313;-85
2023/05/21 10:58:35;;;;;;;12.60;8.70;;;;;;;;;;106789;1270;25288;-84
2023/05/21 11:01:01;;;;;;;13.10;8.30;;;;;;;;;;106804;1279;22771;-81
2023/05/21 11:03:29;;;;;;;12.00;8.70;;;;;;;;;;106778;1279;22524;-79
2023/05/21 11:05:56;;;;;;;15.20;8.70;;;;;;;;;;106815;1279;22536;-86
2023/05/21 11:08:24;;;;;;;11.40;8.00;;;;;;;;;;106750;1261;24364;-85
2023/05/21 11:10:56;;;;;;;12.00;7.40;;;;;;;;;;106795;1279;25323;-83
2023/05/21 11:13:24;;;;;;;12.70;7.50;;;;;;;;;;106764;1279;22747;-86
2023/05/21 11:15:57;;;;;;;12.50;7.90;;;;;;;;;;106783;1279;22572;-81
2023/05/21 11:18:36;;;;;;;12.30;7.80;;;;;;;;;;106774;1279;21848;-82
2023/05/21 11:21:03;;;;;;;12.20;7.90;;;;;;;;;;106784;1279;25230;-78
2023/05/21 11:23:49;;;;;;;10.80;6.90;;;;;;;;;;106798;1279;22579;-82
2023/05/21 11:26:16;;;;;;;12.00;6.60;;;;;;;;;;106803;1279;22593;-85
2023/05/21 11:28:43;;;;;;;14.10;7.20;;;;;;;;;;106780;1259;22537;-77
2023/05/21 11:31:25;;;;;;;11.00;6.60;;;;;;;;;;106821;1279;22536;-82
2023/05/21 11:34:08;;;;;;;12.40;6.60;;;;;;;;;;106591;1278;22549;-85
2023/05/21 11:36:36;;;;;;;11.00;5.90;;;;;;;;;;106754;1279;22533;-86
2023/05/21 11:39:20;;;;;;;10.70;6.20;;;;;;;;;;106786;1260;25363;-79
2023/05/21 11:41:51;;;;;;;11.10;6.40;;;;;;;;;;106812;1279;24232;-85
2023/05/21 11:44:20;;;;;;;12.30;6.00;;;;;;;;;;106807;1279;25303;-78
2023/05/21 11:46:47;;;;;;;10.10;5.60;;;;;;;;;;106716;1279;22747;-79
2023/05/21 11:49:14;;;;;;;11.90;6.70;;;;;;;;;;106570;1275;25274;-83
2023/05/21 11:51:41;;;;;;;11.30;5.70;;;;;;;;;;106843;1279;24262;-82
2023/05/21 11:54:09;;;;;;;9.70;5.50;;;;;;;;;;106514;1279;24374;-82
2023/05/21 11:56:40;;;;;;;11.90;6.20;;;;;;;;;;106783;1279;26470;-83
2023/05/21 11:59:12;;;;;;;8.80;5.50;;;;;;;;;;106769;1260;22737;-78
2023/05/21 12:01:40;;;;;;;9.10;5.50;;;;;;;;;;106790;1279;22615;-83
2023/05/21 12:04:07;;;;;;;13.10;6.20;;;;;;;;;;106562;1279;24269;-80
2023/05/21 12:06:34;;;;;;;10.20;5.60;;;;;;;;;;106779;1279;22768;-83
2023/05/21 12:09:00;;;;;;;9.20;4.80;;;;;;;;;;106714;1279;22472;-82
2023/05/21 12:11:27;;;;;;;13.30;6.20;;;;;;;;;;106739;1273;22618;-77
2023/05/21 12:13:55;;;;;;;10.70;6.00;;;;;;;;;;106523;1276;22524;-75
2023/05/21 12:16:22;;;;;;;9.70;4.70;;;;;;;;;;106770;1273;22627;-82
2023/05/21 12:18:50;;;;;;;9.50;4.90;;;;;;;;;;106790;1262;22523;-76
2023/05/21 12:21:20;;;;;;;11.30;6.10;;;;;;;;;;106733;1276;22569;-79
2023/05/21 12:23:47;;;;;;;9.60;4.80;;;;;;;;;;106681;1280;24223;-81
2023/05/21 12:26:14;;;;;;;9.20;4.80;;;;;;;;;;106709;1276;22641;-82
2023/05/21 12:28:41;;;;;;;10.10;4.80;;;;;;;;;;106796;1260;25274;-82
2023/05/21 12:31:13;;;;;;;8.80;4.70;;;;;;;;;;106767;1275;23915;-79
2023/05/21 12:33:43;;;;;;;10.50;5.20;;;;;;;;;;106666;1279;25290;-78
2023/05/21 12:36:20;;;;;;;8.00;4.90;;;;;;;;;;106672;1272;24200;-81
2023/05/21 12:38:48;;;;;;;9.10;4.90;;;;;;;;;;106752;1260;22563;-79
2023/05/21 12:41:15;;;;;;;8.20;4.30;;;;;;;;;;106570;1280;24217;-84
2023/05/21 12:43:42;;;;;;;9.70;5.10;;;;;;;;;;106715;1280;22538;-81
2023/05/21 12:46:11;;;;;;;8.90;4.70;;;;;;;;;;106630;1273;22534;-76
2023/05/21 12:48:38;;;;;;;9.00;4.60;;;;;;;;;;106798;1257;22546;-77
2023/05/21 12:51:05;;;;;;;13.60;4.40;;;;;;;;;;106742;1272;22534;-81
2023/05/21 12:53:40;;;;;;;7.90;4.10;;;;;;;;;;106785;1265;22537;-77
2023/05/21 12:56:14;;;;;;;7.50;4.10;;;;;;;;;;106715;1279;22544;-78
2023/05/21 12:58:41;;;;;;;9.40;4.50;;;;;;;;;;106648;1272;24201;-77
2023/05/21 13:01:10;;;;;;;11.00;3.90;;;;;;;;;;106507;1269;22527;-76
2023/05/21 13:03:37;;;;;;;9.00;4.20;;;;;;;;;;106476;1276;25295;-80
2023/05/21 13:06:07;;;;;;;7.40;3.80;;;;;;;;;;106746;1271;25421;-77
2023/05/21 13:08:34;;;;;;;6.90;4.40;;;;;;;;;;106750;1272;24193;-79
2023/05/21 13:11:01;;;;;;;12.30;5.10;;;;;;;;;;106476;1263;23918;-80
2023/05/21 13:13:29;;;;;;;9.40;4.70;;;;;;;;;;106679;1273;25343;-80
2023/05/21 13:15:59;;;;;;;8.70;4.80;;;;;;;;;;106791;1272;25418;-77
2023/05/21 13:18:26;;;;;;;11.70;6.60;;;;;;;;;;106557;1272;24186;-81
2023/05/21 13:20:52;;;;;;;8.60;4.10;;;;;;;;;;106694;1257;22638;-81
2023/05/21 13:23:19;;;;;;;8.30;4.20;;;;;;;;;;106783;1273;22521;-77
2023/05/21 13:25:46;;;;;;;7.70;4.30;;;;;;;;;;106705;1272;24269;-78
2023/05/21 13:28:15;;;;;;;8.10;3.90;;;;;;;;;;106716;1273;24021;-83
2023/05/21 13:30:42;;;;;;;7.90;4.50;;;;;;;;;;106726;1270;23869;-91
2023/05/21 13:33:10;;;;;;;6.80;4.20;;;;;;;;;;106774;1272;23911;-77
2023/05/21 13:35:37;;;;;;;9.20;4.10;;;;;;;;;;106824;1272;23870;-77
2023/05/21 13:38:04;;;;;;;10.40;4.20;;;;;;;;;;106721;1273;24249;-77
2023/05/21 13:40:31;;;;;;;8.60;3.80;;;;;;;;;;106815;1261;25436;-80
2023/05/21 13:42:58;;;;;;;8.40;4.30;;;;;;;;;;106728;1274;25353;-78
2023/05/21 13:45:27;;;;;;;8.00;4.30;;;;;;;;;;106484;1275;22523;-79
2023/05/21 13:47:55;;;;;;;9.20;4.40;;;;;;;;;;106605;1272;22493;-78
2023/05/21 13:50:25;;;;;;;10.10;4.80;;;;;;;;;;106688;1273;22549;-85
2023/05/21 13:52:52;;;;;;;9.80;4.50;;;;;;;;;;106773;1271;22641;-77
2023/05/21 13:55:19;;;;;;;8.10;4.70;;;;;;;;;;106793;1273;25357;-78
2023/05/21 13:57:46;;;;;;;9.70;4.60;;;;;;;;;;106777;1272;24224;-82
2023/05/21 14:00:14;;;;;;;11.60;4.70;;;;;;;;;;106761;1262;22527;-84
2023/05/21 14:02:42;;;;;;;8.60;4.70;;;;;;;;;;106776;1272;22526;-82
2023/05/21 14:05:09;;;;;;;7.30;4.00;;;;;;;;;;106751;1271;22523;-80
2023/05/21 14:07:38;;;;;;;10.30;4.80;;;;;;;;;;106765;1273;22540;-81
2023/05/21 14:10:05;;;;;;;9.80;4.60;;;;;;;;;;106776;1257;25243;-78
2023/05/21 14:12:33;;;;;;;9.80;4.70;;;;;;;;;;106731;1273;22742;-82
2023/05/21 14:15:00;;;;;;;9.30;3.80;;;;;;;;;;106798;1272;22597;-82
2023/05/21 14:17:26;;;;;;;12.90;7.30;;;;;;;;;;106740;1272;22524;-84
2023/05/21 14:19:54;;;;;;;17.20;9.10;;;;;;;;;;106761;1272;25345;-78
2023/05/21 14:22:23;;;;;;;9.40;5.10;;;;;;;;;;106777;1270;22528;-80
2023/05/21 14:24:50;;;;;;;9.60;4.30;;;;;;;;;;106790;1271;24202;-79
2023/05/21 14:27:17;;;;;;;11.20;4.90;;;;;;;;;;106738;1273;22553;-83
2023/05/21 14:29:43;;;;;;;9.50;4.60;;;;;;;;;;106479;1272;25335;-78
2023/05/21 14:32:11;;;;;;;11.60;4.30;;;;;;;;;;106657;1261;22624;-80
2023/05/21 14:34:39;;;;;;;12.60;4.90;;;;;;;;;;106790;1272;26472;-79
2023/05/21 14:37:05;;;;;;;10.00;4.50;;;;;;;;;;106528;1275;24179;-86
2023/05/21 14:39:32;;;;;;;14.10;6.60;;;;;;;;;;106729;1273;22953;-79
2023/05/21 14:41:59;;;;;;;14.20;5.30;;;;;;;;;;106780;1272;24217;-83
2023/05/21 14:44:25;;;;;;;9.80;4.00;;;;;;;;;;106722;1260;22749;-85
2023/05/21 14:46:52;;;;;;;9.50;4.40;;;;;;;;;;106821;1279;22665;-77
2023/05/21 14:49:19;;;;;;;8.80;3.80;;;;;;;;;;106785;1279;25442;-82
2023/05/21 14:51:46;;;;;;;10.70;4.10;;;;;;;;;;106730;1261;22539;-84
2023/05/21 14:54:13;;;;;;;9.70;3.90;;;;;;;;;;106745;1271;25370;-81
2023/05/21 14:56:40;;;;;;;12.40;4.70;;;;;;;;;;106780;1272;24062;-77
2023/05/21 14:59:07;;;;;;;10.90;4.10;;;;;;;;;;106751;1279;22548;-85
2023/05/21 15:01:34;;;;;;;10.20;5.30;;;;;;;;;;106735;1259;25293;-78
2023/05/21 15:04:02;;;;;;;6.80;3.10;;;;;;;;;;106799;1279;25338;-79